M I D A S
Marine Information and Data Acquisition System
Tripno 945 of the Zeeleeuw from 2005-04-13 06:34:00 to 2005-04-13 13:48:16
Back to CruiseResearch ActivitiesStationsMapUnderway DataData graphs

EquipmentUnitsComment
TimeDGPSUTC
LatitudeDGPSDM.mWGS84
LongitudeDGPSDM.mWGS84
HeadingGyrodeg 
SOGDGPSknotsSpeed over ground
COGDGPSdegCourse over ground
DepthEcho soundermeters200 kHz
Missing or incorrect values are displayed as -999
Navigation data collected by the RV Zeeleeuw from 2005-04-13 06:30:56 to 2005-04-13 13:59:09
                                                                                    Next 1000 lines
Time Latitude Longitude Heading SOG COG Depth
2005-04-13 06:31:07 51°13.596 2°56.1 128.2 0.1 259 7.2
2005-04-13 06:31:11 51°13.596 2°56.1 128.7 0.1 231 7.2
2005-04-13 06:31:17 51°13.595 2°56.1 129.2 0.1 194 7.2
2005-04-13 06:31:22 51°13.595 2°56.1 129.7 0.1 196 7.2
2005-04-13 06:31:26 51°13.595 2°56.1 130.1 0.1 225 7.2
2005-04-13 06:31:32 51°13.595 2°56.1 130.6 0.1 232 7.2
2005-04-13 06:31:37 51°13.595 2°56.099 131.2 0.1 218 7.2
2005-04-13 06:31:41 51°13.595 2°56.099 131.7 0.1 224 7.2
2005-04-13 06:31:47 51°13.595 2°56.099 132.5 0.1 232 7.2
2005-04-13 06:31:52 51°13.594 2°56.099 133 0.1 228 7.2
2005-04-13 06:31:57 51°13.594 2°56.099 133.7 0.1 216 5.5
2005-04-13 06:32:01 51°13.594 2°56.098 134.3 0.1 224 7.2
2005-04-13 06:32:07 51°13.594 2°56.098 135 0.1 226 7.2
2005-04-13 06:32:12 51°13.594 2°56.098 135.5 0.1 187 7.2
2005-04-13 06:32:17 51°13.594 2°56.098 136.1 0.1 166 7.2
2005-04-13 06:32:22 51°13.594 2°56.098 136.4 0.1 173 7.2
2005-04-13 06:32:27 51°13.594 2°56.098 136.5 0.1 173 7.2
2005-04-13 06:32:32 51°13.593 2°56.099 136.7 0.2 150 7.2
2005-04-13 06:32:37 51°13.593 2°56.099 136.8 0.2 147 7.2
2005-04-13 06:32:41 51°13.593 2°56.1 136.9 0.4 140 7.3
2005-04-13 06:32:47 51°13.592 2°56.101 136.9 0.5 135 7.3
2005-04-13 06:32:52 51°13.591 2°56.102 136.9 0.7 135 7.4
2005-04-13 06:32:56 51°13.59 2°56.103 136.9 0.8 132 7.4
2005-04-13 06:33:01 51°13.59 2°56.104 136.9 1.1 135 7.5
2005-04-13 06:33:07 51°13.588 2°56.107 136.9 1.1 135 5.6
2005-04-13 06:33:11 51°13.587 2°56.109 137.1 1.3 133 7.6
2005-04-13 06:33:17 51°13.585 2°56.112 137.6 1.6 134 -999
2005-04-13 06:33:22 51°13.583 2°56.115 138.2 1.8 136 -999
2005-04-13 06:33:27 51°13.581 2°56.117 138.8 1.9 136 4.8
2005-04-13 06:33:33 51°13.579 2°56.121 139.3 2 137 4.9
2005-04-13 06:33:37 51°13.577 2°56.124 140.1 2 137 9.4
2005-04-13 06:33:41 51°13.575 2°56.126 140.8 2 137 9.5
2005-04-13 06:33:47 51°13.572 2°56.13 141.5 2 137 9.5
2005-04-13 06:33:52 51°13.57 2°56.133 142.4 2.4 141 9.3
2005-04-13 06:33:56 51°13.567 2°56.136 142.5 2.5 139 9.4
2005-04-13 06:34:02 51°13.564 2°56.14 141.5 2.5 139 9.2
2005-04-13 06:34:07 51°13.562 2°56.144 139.9 2.5 139 9.4
2005-04-13 06:34:12 51°13.559 2°56.148 137.8 2.6 134 9.5
2005-04-13 06:34:17 51°13.557 2°56.153 135 2.7 130 9.5
2005-04-13 06:34:21 51°13.555 2°56.157 131 2.7 123 9.5
2005-04-13 06:34:27 51°13.554 2°56.163 125.9 2.8 118 9.5
2005-04-13 06:34:32 51°13.552 2°56.169 120.3 2.8 113 9.5
2005-04-13 06:34:36 51°13.551 2°56.175 114.3 2.9 106 9.5
2005-04-13 06:34:42 51°13.551 2°56.182 108.2 2.9 106 9.5
2005-04-13 06:34:47 51°13.551 2°56.187 103.4 2.8 94 9.5
2005-04-13 06:34:51 51°13.551 2°56.193 96.6 2.8 94 9.5
2005-04-13 06:34:57 51°13.551 2°56.199 92.9 2.5 88 9.3
2005-04-13 06:35:02 51°13.551 2°56.202 90 1.9 85 8.9
2005-04-13 06:35:07 51°13.551 2°56.204 86.6 1.9 85 8.9
2005-04-13 06:35:11 51°13.552 2°56.206 83.4 0.9 78 8.9
2005-04-13 06:35:17 51°13.552 2°56.206 80.1 0.5 73 8.9
2005-04-13 06:35:22 51°13.552 2°56.206 78.2 0.1 250 8.7
2005-04-13 06:35:27 51°13.552 2°56.205 76.9 0.4 263 8.7
2005-04-13 06:35:31 51°13.552 2°56.203 75.7 0.7 261 8.8
2005-04-13 06:35:37 51°13.552 2°56.201 75 0.8 263 8.9
2005-04-13 06:35:41 51°13.551 2°56.2 74.7 0.6 270 8.9
2005-04-13 06:35:48 51°13.552 2°56.201 74.2 0.6 270 -999
2005-04-13 06:35:53 51°13.553 2°56.202 71.3 0.6 52 -999
2005-04-13 06:35:57 51°13.553 2°56.204 66 0.6 52 -999
2005-04-13 06:36:03 51°13.554 2°56.205 61.3 1 44 8.8
2005-04-13 06:36:07 51°13.555 2°56.205 57.3 1 44 -999
2005-04-13 06:36:12 51°13.555 2°56.205 53.7 1 44 8.9
2005-04-13 06:36:17 51°13.554 2°56.203 50.3 0.4 242 -999
2005-04-13 06:36:23 51°13.553 2°56.201 47.4 0.4 242 -999
2005-04-13 06:36:28 51°13.552 2°56.199 44.9 0.4 242 -999
2005-04-13 06:36:33 51°13.551 2°56.198 43.5 0.4 242 -999
2005-04-13 06:36:38 51°13.551 2°56.197 42.3 0.4 242 -999
2005-04-13 06:36:43 51°13.552 2°56.197 40.5 0.4 242 -999
2005-04-13 06:36:47 51°13.553 2°56.198 36.2 0.8 17 -999
2005-04-13 06:36:52 51°13.554 2°56.198 30.6 1 16 -999
2005-04-13 06:36:57 51°13.554 2°56.198 25.7 0.4 4 -999
2005-04-13 06:37:03 51°13.554 2°56.197 22 0.4 224 -999
2005-04-13 06:37:07 51°13.553 2°56.196 18.6 0.7 203 -999
2005-04-13 06:37:13 51°13.55 2°56.195 16.4 0.7 203 -999
2005-04-13 06:37:18 51°13.548 2°56.194 14.6 0.7 203 -999
2005-04-13 06:37:23 51°13.545 2°56.193 13.7 1.8 187 -999
2005-04-13 06:37:27 51°13.543 2°56.193 13.4 1.7 187 -999
2005-04-13 06:37:33 51°13.541 2°56.192 13.9 1.6 188 -999
2005-04-13 06:37:37 51°13.541 2°56.192 13.7 1.6 188 -999
2005-04-13 06:37:43 51°13.542 2°56.191 10.6 1.6 188 -999
2005-04-13 06:37:47 51°13.544 2°56.191 5 1.6 188 -999
2005-04-13 06:37:53 51°13.546 2°56.19 358.1 1.4 358 -999
2005-04-13 06:37:57 51°13.547 2°56.19 352.9 1.1 346 -999
2005-04-13 06:38:01 51°13.547 2°56.189 349.8 0.4 346 -999
2005-04-13 06:38:08 51°13.547 2°56.19 346.4 -999 349 -999
2005-04-13 06:38:13 51°13.546 2°56.19 344.7 0.4 135 -999
2005-04-13 06:38:17 51°13.545 2°56.191 342.9 1 150 -999
2005-04-13 06:38:22 51°13.543 2°56.192 341.8 1.2 151 -999
2005-04-13 06:38:27 51°13.541 2°56.194 341.3 1.5 156 -999
2005-04-13 06:38:33 51°13.539 2°56.196 341.3 1.4 153 -999
2005-04-13 06:38:37 51°13.538 2°56.196 341.8 1.3 156 -999
2005-04-13 06:38:42 51°13.538 2°56.197 342.5 0.5 161 -999
2005-04-13 06:38:47 51°13.539 2°56.196 340.9 0.3 337 -999
2005-04-13 06:38:51 51°13.54 2°56.195 336 1.3 322 -999
2005-04-13 06:38:57 51°13.543 2°56.191 329.2 2.3 322 -999
2005-04-13 06:39:02 51°13.546 2°56.187 320.9 2.4 319 -999
2005-04-13 06:39:07 51°13.548 2°56.184 314 2.4 319 -999
2005-04-13 06:39:12 51°13.55 2°56.178 310.6 2.6 310 -999
2005-04-13 06:39:18 51°13.553 2°56.172 307.9 2.6 310 -999
2005-04-13 06:39:23 51°13.556 2°56.165 306.2 2.6 310 -999
2005-04-13 06:39:27 51°13.559 2°56.159 305.2 2.6 310 9.4
2005-04-13 06:39:32 51°13.562 2°56.151 304.3 2.6 310 9.2
2005-04-13 06:39:37 51°13.565 2°56.142 303.7 4.6 300 9.2
2005-04-13 06:39:42 51°13.569 2°56.132 303.5 4.9 300 9.2
2005-04-13 06:39:47 51°13.572 2°56.123 304 5.1 301 9.3
2005-04-13 06:39:52 51°13.576 2°56.113 304.8 5.1 301 9.3
2005-04-13 06:39:57 51°13.58 2°56.102 305.5 5.6 302 9
2005-04-13 06:40:03 51°13.586 2°56.089 306.4 5.9 303 -999
2005-04-13 06:40:07 51°13.59 2°56.079 307 5.9 303 9.2
2005-04-13 06:40:11 51°13.594 2°56.07 307.7 6.2 304 9.3
2005-04-13 06:40:17 51°13.6 2°56.057 307.7 6.3 304 8.9
2005-04-13 06:40:21 51°13.604 2°56.047 307.7 6.5 305 9.1
2005-04-13 06:40:27 51°13.61 2°56.033 307.8 6.6 305 9.2
2005-04-13 06:40:32 51°13.616 2°56.019 308.4 6.7 306 9.2
2005-04-13 06:40:37 51°13.62 2°56.009 308.7 6.8 305 9.2
2005-04-13 06:40:41 51°13.625 2°55.998 309 6.4 306 9.3
2005-04-13 06:40:47 51°13.63 2°55.986 309.1 6.2 305 9.2
2005-04-13 06:40:53 51°13.636 2°55.974 309.1 6.2 305 -999
2005-04-13 06:40:57 51°13.639 2°55.965 308.7 6.2 305 9.3
2005-04-13 06:41:02 51°13.644 2°55.955 308.6 5.6 305 9.2
2005-04-13 06:41:07 51°13.648 2°55.946 308.4 5.6 305 9.2
2005-04-13 06:41:12 51°13.652 2°55.936 308.1 5.3 305 9.2
2005-04-13 06:41:17 51°13.656 2°55.927 308 5.2 304 9.1
2005-04-13 06:41:22 51°13.66 2°55.917 308 5.2 305 9.3
2005-04-13 06:41:27 51°13.665 2°55.908 308.7 5 307 9.2
2005-04-13 06:41:31 51°13.668 2°55.901 309.3 4.9 307 9.1
2005-04-13 06:41:37 51°13.672 2°55.892 309.6 4.9 307 9.1
2005-04-13 06:41:42 51°13.676 2°55.883 309.8 4.9 308 8.9
2005-04-13 06:41:47 51°13.68 2°55.875 309.6 4.8 307 8.8
2005-04-13 06:41:52 51°13.685 2°55.865 309.5 4.8 307 8.7
2005-04-13 06:41:57 51°13.688 2°55.857 308.9 4.9 306 8.9
2005-04-13 06:42:02 51°13.692 2°55.848 308.3 4.9 306 9.5
2005-04-13 06:42:07 51°13.696 2°55.839 307.6 5.2 305 9.6
2005-04-13 06:42:11 51°13.7 2°55.83 306.9 5.2 304 9.6
2005-04-13 06:42:17 51°13.705 2°55.818 306.5 5.5 303 9.8
2005-04-13 06:42:22 51°13.71 2°55.807 306.2 5.6 303 10.5
2005-04-13 06:42:27 51°13.714 2°55.797 306.4 5.8 304 11.4
2005-04-13 06:42:31 51°13.718 2°55.787 306.7 5.9 303 11.7
2005-04-13 06:42:37 51°13.723 2°55.775 307 5.9 303 11.7
2005-04-13 06:42:42 51°13.728 2°55.764 307.7 5.9 303 11.7
2005-04-13 06:42:47 51°13.733 2°55.753 308.8 6.2 306 10.7
2005-04-13 06:42:52 51°13.739 2°55.742 309.9 6.3 307 10.3
2005-04-13 06:42:57 51°13.745 2°55.73 311.3 6.6 308 9.8
2005-04-13 06:43:01 51°13.75 2°55.72 313.6 6.9 312 9.8
2005-04-13 06:43:07 51°13.758 2°55.708 316.2 7 313 9.8
2005-04-13 06:43:12 51°13.765 2°55.696 318.2 7.2 315 9.8
2005-04-13 06:43:17 51°13.773 2°55.685 320 7.3 317 9.8
2005-04-13 06:43:21 51°13.779 2°55.677 322.3 7.5 320 9.8
2005-04-13 06:43:27 51°13.791 2°55.664 324.6 7.6 323 9.8
2005-04-13 06:43:31 51°13.798 2°55.657 328.5 7.7 326 9.9
2005-04-13 06:43:37 51°13.808 2°55.647 331.1 7.8 329 9.9
2005-04-13 06:43:41 51°13.816 2°55.64 333.1 8 331 10
2005-04-13 06:43:47 51°13.828 2°55.63 335.2 8 332 10
2005-04-13 06:43:51 51°13.837 2°55.623 336.9 8 332 9.9
2005-04-13 06:43:57 51°13.849 2°55.615 338.4 8 332 10
2005-04-13 06:44:02 51°13.86 2°55.606 339.2 8.3 335 9.8
2005-04-13 06:44:07 51°13.871 2°55.599 339.1 8.4 335 9.9
2005-04-13 06:44:12 51°13.88 2°55.591 338.9 8.4 335 9.9
2005-04-13 06:44:17 51°13.891 2°55.584 339.3 8.5 335 9.9
2005-04-13 06:44:21 51°13.901 2°55.576 339.4 8.6 335 9.8
2005-04-13 06:44:27 51°13.913 2°55.568 339.4 8.6 335 9.7
2005-04-13 06:44:31 51°13.923 2°55.56 339.5 8.7 335 9.9
2005-04-13 06:44:36 51°13.934 2°55.552 339.7 8.7 335 9.9
2005-04-13 06:44:42 51°13.947 2°55.543 339.6 9 335 9.9
2005-04-13 06:44:47 51°13.958 2°55.535 339.6 9.1 336 9.9
2005-04-13 06:44:52 51°13.971 2°55.526 340.4 9.2 337 9.9
2005-04-13 06:44:57 51°13.982 2°55.519 340.5 9.2 337 9.9
2005-04-13 06:45:01 51°13.992 2°55.513 341.4 9.2 337 9.8
2005-04-13 06:45:07 51°14.007 2°55.503 342.1 9.3 339 9.7
2005-04-13 06:45:12 51°14.018 2°55.497 342 9.3 339 9.7
2005-04-13 06:45:17 51°14.03 2°55.489 341.8 9.2 339 9.6
2005-04-13 06:45:22 51°14.041 2°55.482 341.9 9.1 338 9.5
2005-04-13 06:45:27 51°14.054 2°55.473 341.7 9.1 338 9.4
2005-04-13 06:45:32 51°14.064 2°55.466 341.1 9.1 337 9.5
2005-04-13 06:45:37 51°14.076 2°55.458 340.9 9 337 9.5
2005-04-13 06:45:42 51°14.089 2°55.45 341.2 9 338 9.6
2005-04-13 06:45:47 51°14.099 2°55.442 341.3 9 337 9.6
2005-04-13 06:45:51 51°14.109 2°55.435 340.6 9 336 9.8
2005-04-13 06:45:57 51°14.123 2°55.425 339.9 9 336 9.9
2005-04-13 06:46:02 51°14.134 2°55.415 338.9 9.2 334 10
2005-04-13 06:46:07 51°14.145 2°55.406 337.6 9.2 334 10.1
2005-04-13 06:46:12 51°14.156 2°55.396 336.8 9.5 333 10.6
2005-04-13 06:46:17 51°14.168 2°55.386 335.1 9.5 333 10.4
2005-04-13 06:46:22 51°14.181 2°55.373 333.2 9.8 328 10.9
2005-04-13 06:46:27 51°14.191 2°55.362 331.6 9.8 327 10.5
2005-04-13 06:46:32 51°14.202 2°55.348 329.5 9.9 325 10.5
2005-04-13 06:46:37 51°14.213 2°55.335 327 10 323 10.1
2005-04-13 06:46:41 51°14.221 2°55.323 325.1 10.1 320 10.7
2005-04-13 06:46:47 51°14.234 2°55.305 322.9 10.1 320 10.2
2005-04-13 06:46:52 51°14.244 2°55.287 320.7 10.2 315 11
2005-04-13 06:46:57 51°14.253 2°55.272 318.7 10.2 315 10.6
2005-04-13 06:47:02 51°14.263 2°55.255 317.2 10.4 313 10.2
2005-04-13 06:47:07 51°14.273 2°55.237 316.2 10.4 313 10.1
2005-04-13 06:47:12 51°14.284 2°55.217 315.3 10.8 311 10.2
2005-04-13 06:47:17 51°14.293 2°55.2 315 10.9 311 10.2
2005-04-13 06:47:22 51°14.303 2°55.181 314.6 11.1 311 10.1
2005-04-13 06:47:27 51°14.312 2°55.162 313.4 11.4 309 10.4
2005-04-13 06:47:32 51°14.323 2°55.14 313 11.4 309 10.3
2005-04-13 06:47:37 51°14.333 2°55.122 313 11.7 309 10.4
2005-04-13 06:47:41 51°14.341 2°55.106 313.7 11.8 310 10.4
2005-04-13 06:47:47 51°14.354 2°55.081 313.9 11.9 310 10.4
2005-04-13 06:47:52 51°14.365 2°55.061 314 12 310 10.1
2005-04-13 06:47:56 51°14.375 2°55.042 314.5 12 310 10.2
2005-04-13 06:48:02 51°14.388 2°55.018 314.9 12.4 310 10.4
2005-04-13 06:48:07 51°14.399 2°54.997 314.6 12.6 309 10.3
2005-04-13 06:48:11 51°14.409 2°54.976 313.9 12.8 308 10.4
2005-04-13 06:48:17 51°14.421 2°54.951 313.5 13 308 10.4
2005-04-13 06:48:22 51°14.433 2°54.926 314.2 13.2 308 10.5
2005-04-13 06:48:27 51°14.443 2°54.904 313.8 13.2 308 10.5
2005-04-13 06:48:32 51°14.453 2°54.879 311.5 13.4 304 10.5
2005-04-13 06:48:37 51°14.463 2°54.854 309.9 13.5 303 10.4
2005-04-13 06:48:41 51°14.471 2°54.833 308.4 13.6 301 10.5
2005-04-13 06:48:47 51°14.482 2°54.801 307.6 13.7 300 10.5
2005-04-13 06:48:52 51°14.493 2°54.773 306.7 13.8 300 10.5
2005-04-13 06:48:57 51°14.502 2°54.749 306.6 13.8 300 10.4
2005-04-13 06:49:02 51°14.513 2°54.72 307.1 13.8 301 10.4
2005-04-13 06:49:07 51°14.523 2°54.696 307.8 13.8 301 10.3
2005-04-13 06:49:12 51°14.533 2°54.67 308.4 13.9 302 10.4
2005-04-13 06:49:17 51°14.543 2°54.644 308.8 13.9 302 10.5
2005-04-13 06:49:21 51°14.552 2°54.623 308.8 13.9 302 10.2
2005-04-13 06:49:27 51°14.564 2°54.591 308.4 14 302 10.1
2005-04-13 06:49:31 51°14.573 2°54.568 308.3 14 302 10.1
2005-04-13 06:49:36 51°14.583 2°54.542 308.2 13.9 302 10.2
2005-04-13 06:49:42 51°14.595 2°54.51 308.1 13.9 302 10.1
2005-04-13 06:49:47 51°14.605 2°54.486 308.1 14 302 10.1
2005-04-13 06:49:51 51°14.614 2°54.463 308.2 14 302 10.1
2005-04-13 06:49:57 51°14.626 2°54.434 308.4 14 303 10
2005-04-13 06:50:02 51°14.637 2°54.406 308.4 14 303 10
2005-04-13 06:50:07 51°14.648 2°54.38 308.5 14 303 10.1
2005-04-13 06:50:11 51°14.656 2°54.359 308.3 14 302 10
2005-04-13 06:50:17 51°14.667 2°54.329 308.2 14 303 10
2005-04-13 06:50:22 51°14.678 2°54.303 307.8 14 303 10
2005-04-13 06:50:27 51°14.688 2°54.277 307.8 14 302 10
2005-04-13 06:50:32 51°14.699 2°54.25 307.8 14 302 10
2005-04-13 06:50:37 51°14.71 2°54.225 308.1 14 303 10
2005-04-13 06:50:40 51°14.717 2°54.207 308.7 14 304 10
2005-04-13 06:50:47 51°14.732 2°54.173 308.9 14 304 10
2005-04-13 06:50:52 51°14.743 2°54.147 308.9 14 304 10.1
2005-04-13 06:50:57 51°14.753 2°54.121 309 14 304 10
2005-04-13 06:51:01 51°14.763 2°54.097 308.8 14 303 9.9
2005-04-13 06:51:07 51°14.775 2°54.069 308.7 14 303 9.8
2005-04-13 06:51:11 51°14.784 2°54.045 308.4 14 303 9.8
2005-04-13 06:51:17 51°14.796 2°54.017 308.3 14 303 9.6
2005-04-13 06:51:21 51°14.804 2°53.997 308.3 13.9 303 9.5
2005-04-13 06:51:27 51°14.817 2°53.966 308.4 13.9 303 9.5
2005-04-13 06:51:32 51°14.828 2°53.938 308.4 13.8 303 9.4
2005-04-13 06:51:37 51°14.837 2°53.915 308.4 13.8 303 9.4
2005-04-13 06:51:40 51°14.845 2°53.897 308.4 13.9 303 9.3
2005-04-13 06:51:47 51°14.858 2°53.864 308.2 13.9 303 9.4
2005-04-13 06:51:52 51°14.869 2°53.838 308.1 13.9 303 9.4
2005-04-13 06:51:57 51°14.879 2°53.813 307.8 13.9 303 9.4
2005-04-13 06:52:02 51°14.89 2°53.787 307.8 13.9 303 9.4
2005-04-13 06:52:07 51°14.901 2°53.759 307.7 13.9 303 9.4
2005-04-13 06:52:12 51°14.912 2°53.734 308.2 13.9 304 9.3
2005-04-13 06:52:17 51°14.922 2°53.711 308.4 13.9 304 9.4
2005-04-13 06:52:21 51°14.932 2°53.687 308.7 13.9 304 9.5
2005-04-13 06:52:27 51°14.944 2°53.657 308.8 13.9 304 9.5
2005-04-13 06:52:31 51°14.952 2°53.637 307.8 13.9 304 9.6
2005-04-13 06:52:37 51°14.963 2°53.608 307 13.8 302 9.6
2005-04-13 06:52:41 51°14.971 2°53.587 305.7 13.9 300 9.6
2005-04-13 06:52:47 51°14.982 2°53.554 304.1 13.9 298 9.6
2005-04-13 06:52:52 51°14.99 2°53.526 302.3 13.9 297 9.6
2005-04-13 06:52:57 51°14.997 2°53.499 300 13.8 294 9.6
2005-04-13 06:53:01 51°15.004 2°53.473 299 13.7 294 9.7
2005-04-13 06:53:07 51°15.012 2°53.443 298.6 13.7 293 9.8
2005-04-13 06:53:11 51°15.019 2°53.421 298.6 13.7 294 9.7
2005-04-13 06:53:17 51°15.028 2°53.388 299 13.7 294 9.7
2005-04-13 06:53:21 51°15.034 2°53.366 299.6 13.7 294 9.8
2005-04-13 06:53:26 51°15.043 2°53.335 299.9 13.7 294 9.8
2005-04-13 06:53:32 51°15.052 2°53.305 300.2 13.6 295 9.8
2005-04-13 06:53:37 51°15.06 2°53.278 300.3 13.7 295 9.8
2005-04-13 06:53:43 51°15.069 2°53.244 300.4 13.7 295 9.8
2005-04-13 06:53:47 51°15.076 2°53.223 300.4 13.7 295 10.1
2005-04-13 06:53:52 51°15.085 2°53.192 300.5 13.7 295 10
2005-04-13 06:53:57 51°15.092 2°53.168 300.6 13.7 295 10
2005-04-13 06:54:01 51°15.099 2°53.142 300.6 13.7 295 10.1
2005-04-13 06:54:07 51°15.108 2°53.113 300.4 13.7 295 10.1
2005-04-13 06:54:11 51°15.115 2°53.088 300.6 13.7 295 10.2
2005-04-13 06:54:17 51°15.124 2°53.058 300.6 13.7 295 10
2005-04-13 06:54:22 51°15.133 2°53.028 300.6 13.7 295 10.1
2005-04-13 06:54:27 51°15.14 2°53.004 300.6 13.7 295 10.2
2005-04-13 06:54:31 51°15.147 2°52.978 300.6 13.7 295 10.2
2005-04-13 06:54:37 51°15.156 2°52.948 300.2 13.7 295 10.4
2005-04-13 06:54:42 51°15.164 2°52.92 300.2 13.7 295 10.3
2005-04-13 06:54:47 51°15.172 2°52.893 300.4 13.7 295 10.4
2005-04-13 06:54:51 51°15.179 2°52.868 300.7 13.7 295 10.4
2005-04-13 06:54:57 51°15.188 2°52.838 300.5 13.7 294 10.5
2005-04-13 06:55:02 51°15.195 2°52.81 300.4 13.7 295 10.6
2005-04-13 06:55:07 51°15.203 2°52.782 300.2 13.7 294 10.6
2005-04-13 06:55:12 51°15.212 2°52.752 300.1 13.7 294 10.7
2005-04-13 06:55:17 51°15.219 2°52.727 300 13.7 294 10.8
2005-04-13 06:55:22 51°15.227 2°52.696 300 13.7 294 10.7
2005-04-13 06:55:27 51°15.233 2°52.671 299 13.7 292 10.9
2005-04-13 06:55:31 51°15.24 2°52.646 298 13.7 292 10.9
2005-04-13 06:55:35 51°15.245 2°52.623 296.9 13.8 291 10.9
2005-04-13 06:55:42 51°15.254 2°52.583 296.4 13.8 291 10.9
2005-04-13 06:55:47 51°15.26 2°52.557 296.1 13.8 290 11
2005-04-13 06:55:51 51°15.266 2°52.532 295.9 13.8 290 11.1
2005-04-13 06:55:57 51°15.273 2°52.5 295.6 13.8 290 11.1
2005-04-13 06:56:01 51°15.278 2°52.477 295.5 13.8 290 11.2
2005-04-13 06:56:07 51°15.287 2°52.44 295.5 13.8 290 11.2
2005-04-13 06:56:12 51°15.294 2°52.411 295.7 13.8 290 11.3
2005-04-13 06:56:17 51°15.3 2°52.382 295.7 13.8 290 11.3
2005-04-13 06:56:22 51°15.307 2°52.354 295.9 13.8 290 11.3
2005-04-13 06:56:27 51°15.313 2°52.326 295.8 13.8 290 11.4
2005-04-13 06:56:31 51°15.318 2°52.303 294.5 13.8 289 11.5
2005-04-13 06:56:37 51°15.324 2°52.271 293.5 13.8 288 11.5
2005-04-13 06:56:42 51°15.33 2°52.241 293.1 13.8 288 11.6
2005-04-13 06:56:47 51°15.336 2°52.212 292.5 13.8 288 11.6
2005-04-13 06:56:51 51°15.34 2°52.186 291.9 13.8 287 11.7
2005-04-13 06:56:57 51°15.347 2°52.154 291.5 13.8 287 11.7
2005-04-13 06:57:01 51°15.351 2°52.13 291.3 13.9 287 11.8
2005-04-13 06:57:07 51°15.358 2°52.092 291.2 13.9 287 11.9
2005-04-13 06:57:11 51°15.363 2°52.068 291.2 13.9 287 11.8
2005-04-13 06:57:17 51°15.369 2°52.036 291.2 13.9 287 11.9
2005-04-13 06:57:22 51°15.375 2°52.004 291.3 13.9 287 12
2005-04-13 06:57:27 51°15.38 2°51.977 291.2 13.9 287 12
2005-04-13 06:57:31 51°15.385 2°51.951 291.1 13.9 287 12.1
2005-04-13 06:57:37 51°15.391 2°51.918 291.1 13.9 287 12
2005-04-13 06:57:42 51°15.397 2°51.885 291.1 13.9 287 12
2005-04-13 06:57:47 51°15.403 2°51.856 291.1 14 287 12.1
2005-04-13 06:57:51 51°15.407 2°51.833 291.1 14 287 12.1
2005-04-13 06:57:56 51°15.412 2°51.803 291 13.9 286 12.2
2005-04-13 06:58:02 51°15.418 2°51.767 290.8 13.9 286 12.1
2005-04-13 06:58:07 51°15.42 2°51.74 288.3 13.8 280 12.1
2005-04-13 06:58:12 51°15.422 2°51.707 282.9 13.8 275 12
2005-04-13 06:58:17 51°15.423 2°51.679 278.9 13.8 275 12
2005-04-13 06:58:22 51°15.423 2°51.645 276.1 13.8 271 12
2005-04-13 06:58:27 51°15.423 2°51.615 274.1 13.8 271 12
2005-04-13 06:58:32 51°15.422 2°51.585 272.7 13.7 269 12.1
2005-04-13 06:58:37 51°15.421 2°51.56 271.2 13.4 268 12.1
2005-04-13 06:58:41 51°15.42 2°51.539 270.1 12.5 267 12.1
2005-04-13 06:58:47 51°15.418 2°51.509 268.7 11.5 265 12.2
2005-04-13 06:58:53 51°15.416 2°51.48 267.4 11.5 265 12.3
2005-04-13 06:58:57 51°15.415 2°51.463 266.4 10.7 264 12.4
2005-04-13 06:59:02 51°15.413 2°51.439 265.8 10.3 264 12.4
2005-04-13 06:59:07 51°15.411 2°51.418 265.3 9.7 263 12.4
2005-04-13 06:59:12 51°15.41 2°51.398 264.9 9.2 263 12.5
2005-04-13 06:59:16 51°15.409 2°51.383 264.9 9 263 12.5
2005-04-13 06:59:22 51°15.407 2°51.362 265.1 8.7 263 12.5
2005-04-13 06:59:27 51°15.406 2°51.343 265.5 8.7 263 12.5
2005-04-13 06:59:32 51°15.405 2°51.327 266.2 8.1 264 12.5
2005-04-13 06:59:37 51°15.405 2°51.311 266.9 7.8 265 12.5
2005-04-13 06:59:42 51°15.404 2°51.293 267.6 7.4 266 12.6
2005-04-13 06:59:47 51°15.404 2°51.279 268.3 7 267 12.6
2005-04-13 06:59:52 51°15.403 2°51.265 269.3 6.8 268 12.6
2005-04-13 06:59:57 51°15.403 2°51.251 270.4 6.8 268 12.6
2005-04-13 07:00:02 51°15.403 2°51.237 271.3 6.8 268 12.6
2005-04-13 07:00:07 51°15.404 2°51.223 272.2 6.8 268 12.6
2005-04-13 07:00:12 51°15.404 2°51.211 273.3 5.9 272 12.6
2005-04-13 07:00:17 51°15.404 2°51.199 274.2 5.7 272 12.6
2005-04-13 07:00:21 51°15.405 2°51.189 275.5 5.4 274 12.7
2005-04-13 07:00:27 51°15.405 2°51.175 276.5 5.4 274 12.6
2005-04-13 07:00:32 51°15.406 2°51.165 277.7 5.4 274 12.6
2005-04-13 07:00:37 51°15.407 2°51.153 278.7 5.4 274 12.7
2005-04-13 07:00:41 51°15.408 2°51.146 280.3 4.8 278 12.7
2005-04-13 07:00:47 51°15.409 2°51.133 281.6 4.7 279 12.6
2005-04-13 07:00:52 51°15.41 2°51.123 282.8 4.6 280 12.6
2005-04-13 07:00:57 51°15.412 2°51.115 284.2 4.6 280 12.6
2005-04-13 07:01:02 51°15.413 2°51.105 285.4 4.4 283 12.7
2005-04-13 07:01:07 51°15.414 2°51.097 286.7 4.2 284 12.6
2005-04-13 07:01:12 51°15.416 2°51.088 288.1 4.1 284 12.7
2005-04-13 07:01:17 51°15.418 2°51.079 289.5 4.1 284 12.6
2005-04-13 07:01:21 51°15.419 2°51.073 290.9 3.9 289 12.6
2005-04-13 07:01:27 51°15.421 2°51.063 292 3.8 289 12.7
2005-04-13 07:01:32 51°15.423 2°51.055 293.2 3.8 289 12.6
2005-04-13 07:01:37 51°15.425 2°51.048 294.1 3.7 290 12.7
2005-04-13 07:01:42 51°15.427 2°51.041 294.9 3.6 291 12.6
2005-04-13 07:01:46 51°15.428 2°51.035 296.1 3.5 292 12.6
2005-04-13 07:01:51 51°15.43 2°51.028 296.8 3.5 292 12.7
2005-04-13 07:01:57 51°15.432 2°51.02 297.6 3.5 292 12.6
2005-04-13 07:02:03 51°15.434 2°51.012 298.3 3.5 292 12.7
2005-04-13 07:02:07 51°15.436 2°51.006 299 3.2 294 12.7
2005-04-13 07:02:12 51°15.438 2°51 299.5 3.3 295 12.8
2005-04-13 07:02:17 51°15.44 2°50.995 299.8 3.1 295 12.7
2005-04-13 07:02:21 51°15.441 2°50.99 300.4 3.1 296 12.7
2005-04-13 07:02:27 51°15.443 2°50.983 300.6 3.1 296 12.7
2005-04-13 07:02:32 51°15.445 2°50.976 300.9 3 297 12.8
2005-04-13 07:02:36 51°15.447 2°50.972 301.1 3 297 12.8
2005-04-13 07:02:41 51°15.449 2°50.966 301.2 2.9 297 12.7
2005-04-13 07:02:47 51°15.45 2°50.96 301.2 2.9 296 12.8
2005-04-13 07:02:51 51°15.452 2°50.955 301.2 2.8 297 12.8
2005-04-13 07:02:57 51°15.454 2°50.949 301 2.7 296 12.7
2005-04-13 07:03:02 51°15.456 2°50.943 300.8 2.7 297 12.6
2005-04-13 07:03:07 51°15.457 2°50.938 300.6 2.7 297 12.8
2005-04-13 07:03:11 51°15.459 2°50.934 300.4 2.6 297 12.8
2005-04-13 07:03:17 51°15.46 2°50.928 300.1 2.6 297 12.8
2005-04-13 07:03:21 51°15.462 2°50.924 300.1 2.5 297 12.8
2005-04-13 07:03:27 51°15.464 2°50.918 299.7 2.5 297 12.7
2005-04-13 07:03:31 51°15.465 2°50.914 299.5 2.4 296 12.7
2005-04-13 07:03:36 51°15.466 2°50.909 299.4 2.4 296 12.8
2005-04-13 07:03:42 51°15.468 2°50.903 299.2 2.4 295 12.8
2005-04-13 07:03:47 51°15.469 2°50.899 299.1 2.3 296 12.7
2005-04-13 07:03:52 51°15.471 2°50.894 299 2.3 296 12.7
2005-04-13 07:03:57 51°15.472 2°50.89 299 2.3 296 12.8
2005-04-13 07:04:02 51°15.473 2°50.885 298.8 2.2 295 12.8
2005-04-13 07:04:07 51°15.474 2°50.881 298.8 2.2 295 12.7
2005-04-13 07:04:11 51°15.476 2°50.877 298.8 2.2 296 12.7
2005-04-13 07:04:17 51°15.477 2°50.873 298.7 2.2 296 12.7
2005-04-13 07:04:22 51°15.479 2°50.868 298.7 2.2 296 12.8
2005-04-13 07:04:27 51°15.48 2°50.864 298.7 2.1 297 12.7
2005-04-13 07:04:32 51°15.481 2°50.86 298.7 2 297 12.8
2005-04-13 07:04:37 51°15.482 2°50.856 298.6 2 296 12.7
2005-04-13 07:04:42 51°15.484 2°50.852 298.6 2 296 12.7
2005-04-13 07:04:47 51°15.485 2°50.848 298.6 2 296 12.7
2005-04-13 07:04:51 51°15.486 2°50.845 298.6 2 297 12.8
2005-04-13 07:04:57 51°15.487 2°50.841 298.7 2 297 12.8
2005-04-13 07:05:02 51°15.489 2°50.836 298.7 1.9 300 12.8
2005-04-13 07:05:07 51°15.49 2°50.833 298.7 1.9 300 12.7
2005-04-13 07:05:11 51°15.491 2°50.83 298.8 1.9 295 12.8
2005-04-13 07:05:17 51°15.492 2°50.826 298.8 1.9 297 12.8
2005-04-13 07:05:21 51°15.493 2°50.822 299 1.9 299 12.7
2005-04-13 07:05:27 51°15.494 2°50.818 298.9 1.9 299 12.7
2005-04-13 07:05:32 51°15.495 2°50.815 299 1.8 296 12.7
2005-04-13 07:05:37 51°15.497 2°50.811 298.8 1.8 296 12.7
2005-04-13 07:05:41 51°15.498 2°50.808 298.3 1.9 299 12.7
2005-04-13 07:05:47 51°15.499 2°50.804 297.7 1.9 295 12.7
2005-04-13 07:05:52 51°15.5 2°50.8 296.9 1.9 298 12.7
2005-04-13 07:05:56 51°15.501 2°50.797 296.3 1.9 295 12.7
2005-04-13 07:06:02 51°15.502 2°50.792 295.5 1.9 295 12.7
2005-04-13 07:06:07 51°15.503 2°50.789 294.6 1.9 294 12.8
2005-04-13 07:06:12 51°15.505 2°50.784 293.6 2 294 12.7
2005-04-13 07:06:17 51°15.506 2°50.78 292.7 1.9 295 12.7
2005-04-13 07:06:21 51°15.506 2°50.777 291.7 2 292 12.7
2005-04-13 07:06:27 51°15.507 2°50.772 290.7 2 290 12.7
2005-04-13 07:06:32 51°15.508 2°50.769 289.7 2 291 12.8
2005-04-13 07:06:36 51°15.509 2°50.765 288.6 1.9 290 12.7
2005-04-13 07:06:42 51°15.51 2°50.76 287.6 2 290 12.7
2005-04-13 07:06:47 51°15.511 2°50.756 286.9 1.9 289 12.8
2005-04-13 07:06:52 51°15.512 2°50.752 285.9 2 288 12.9
2005-04-13 07:06:57 51°15.513 2°50.748 284.9 2 288 12.7
2005-04-13 07:07:02 51°15.513 2°50.743 283.9 2 288 12.7
2005-04-13 07:07:07 51°15.514 2°50.739 283 2 286 12.8
2005-04-13 07:07:12 51°15.515 2°50.735 282.3 2 287 12.7
2005-04-13 07:07:17 51°15.516 2°50.731 281.2 2 285 12.8
2005-04-13 07:07:22 51°15.516 2°50.726 280.4 2 284 12.7
2005-04-13 07:07:27 51°15.517 2°50.722 279.8 2 284 12.7
2005-04-13 07:07:32 51°15.517 2°50.718 278.8 2 284 12.8
2005-04-13 07:07:37 51°15.518 2°50.714 278 2 283 12.7
2005-04-13 07:07:42 51°15.519 2°50.709 277.2 2 281 12.8
2005-04-13 07:07:47 51°15.519 2°50.705 276.1 2 281 12.7
2005-04-13 07:07:52 51°15.52 2°50.7 275.4 2 281 12.8
2005-04-13 07:07:56 51°15.52 2°50.697 274.4 2 281 12.8
2005-04-13 07:08:02 51°15.521 2°50.691 273.5 2 280 12.7
2005-04-13 07:08:07 51°15.521 2°50.687 272.3 2 278 12.7
2005-04-13 07:08:12 51°15.521 2°50.683 271.7 2 278 12.8
2005-04-13 07:08:17 51°15.522 2°50.678 270.8 2 277 12.8
2005-04-13 07:08:22 51°15.522 2°50.674 269.9 2 277 12.7
2005-04-13 07:08:27 51°15.522 2°50.67 269.1 2 277 12.8
2005-04-13 07:08:32 51°15.523 2°50.665 268.1 2 276 12.7
2005-04-13 07:08:37 51°15.523 2°50.661 267.1 2 276 12.7
2005-04-13 07:08:41 51°15.523 2°50.658 266.4 2 273 12.7
2005-04-13 07:08:47 51°15.523 2°50.652 265.6 2 276 12.6
2005-04-13 07:08:51 51°15.523 2°50.648 264.4 2 273 12.7
2005-04-13 07:08:57 51°15.524 2°50.643 263.6 2 274 12.7
2005-04-13 07:09:01 51°15.524 2°50.64 262.7 2 272 12.8
2005-04-13 07:09:07 51°15.524 2°50.634 261.9 2 272 12.8
2005-04-13 07:09:12 51°15.524 2°50.63 260.8 1.9 270 12.7
2005-04-13 07:09:16 51°15.524 2°50.627 259.8 2 271 12.7
2005-04-13 07:09:22 51°15.523 2°50.622 258.9 1.9 270 12.7
2005-04-13 07:09:27 51°15.523 2°50.618 257.8 2 268 12.7
2005-04-13 07:09:32 51°15.523 2°50.613 256.7 1.9 267 12.6
2005-04-13 07:09:36 51°15.523 2°50.609 255.4 1.9 267 12.7
2005-04-13 07:09:42 51°15.523 2°50.604 254.3 1.9 266 12.6
2005-04-13 07:09:47 51°15.522 2°50.6 253.1 1.9 266 12.6
2005-04-13 07:09:52 51°15.522 2°50.596 251.8 1.9 266 12.7
2005-04-13 07:09:57 51°15.522 2°50.593 250.6 1.8 264 12.6
2005-04-13 07:10:01 51°15.521 2°50.589 249.1 1.8 261 12.7
2005-04-13 07:10:06 51°15.521 2°50.585 247.5 1.8 262 12.7
2005-04-13 07:10:12 51°15.52 2°50.58 246.3 1.8 259 12.8
2005-04-13 07:10:16 51°15.52 2°50.577 244.9 1.8 260 12.7
2005-04-13 07:10:21 51°15.519 2°50.574 243.8 1.8 256 12.7
2005-04-13 07:10:27 51°15.518 2°50.569 242.2 1.8 256 12.6
2005-04-13 07:10:31 51°15.518 2°50.566 240.7 1.8 255 12.7
2005-04-13 07:10:37 51°15.517 2°50.562 239.3 1.7 253 12.7
2005-04-13 07:10:41 51°15.516 2°50.559 237.7 1.7 251 12.8
2005-04-13 07:10:47 51°15.515 2°50.554 236.2 1.7 248 12.8
2005-04-13 07:10:51 51°15.515 2°50.551 234.5 1.7 250 12.7
2005-04-13 07:10:57 51°15.514 2°50.548 232 1.7 250 12.6
2005-04-13 07:11:02 51°15.512 2°50.544 230.1 1.7 250 12.7
2005-04-13 07:11:07 51°15.511 2°50.541 228.9 1.7 244 12.7
2005-04-13 07:11:12 51°15.511 2°50.538 227.1 1.7 244 12.7
2005-04-13 07:11:17 51°15.509 2°50.535 225 1.5 241 12.8
2005-04-13 07:11:21 51°15.509 2°50.533 223.7 1.6 243 12.6
2005-04-13 07:11:27 51°15.507 2°50.529 221.9 1.6 234 12.7
2005-04-13 07:11:32 51°15.506 2°50.526 220 1.7 238 12.7
2005-04-13 07:11:37 51°15.505 2°50.523 217.7 1.5 236 12.7
2005-04-13 07:11:41 51°15.504 2°50.521 215.8 1.5 236 12.7
2005-04-13 07:11:47 51°15.502 2°50.518 213.8 1.5 232 12.7
2005-04-13 07:11:52 51°15.501 2°50.515 211.8 1.5 232 12.7
2005-04-13 07:11:55 51°15.5 2°50.514 209.6 1.4 227 12.7
2005-04-13 07:12:02 51°15.498 2°50.511 207.3 1.5 229 12.7
2005-04-13 07:12:07 51°15.497 2°50.508 205.8 1.5 229 12.7
2005-04-13 07:12:12 51°15.495 2°50.506 203.8 1.4 227 12.7
2005-04-13 07:12:17 51°15.494 2°50.504 201.8 1.4 223 12.8
2005-04-13 07:12:22 51°15.492 2°50.502 199.8 1.4 223 12.7
2005-04-13 07:12:27 51°15.491 2°50.5 197.7 1.3 220 12.7
2005-04-13 07:12:32 51°15.49 2°50.498 195.7 1.3 222 12.7
2005-04-13 07:12:36 51°15.489 2°50.497 193.7 1.3 217 12.7
2005-04-13 07:12:42 51°15.487 2°50.495 191.6 1.2 215 12.7
2005-04-13 07:12:47 51°15.486 2°50.494 189.5 1.2 213 12.7
2005-04-13 07:12:52 51°15.484 2°50.493 187.5 1.1 215 12.7
2005-04-13 07:12:56 51°15.483 2°50.491 185.8 1.1 212 12.7
2005-04-13 07:13:02 51°15.482 2°50.49 184 1.1 212 12.7
2005-04-13 07:13:07 51°15.481 2°50.489 182.5 1.1 212 12.7
2005-04-13 07:13:11 51°15.48 2°50.488 181 0.9 211 12.6
2005-04-13 07:13:17 51°15.479 2°50.487 179.7 0.9 211 12.7
2005-04-13 07:13:23 51°15.477 2°50.486 178.3 0.9 211 12.6
2005-04-13 07:13:27 51°15.476 2°50.485 177 0.9 211 12.6
2005-04-13 07:13:32 51°15.476 2°50.484 175.9 0.8 207 12.6
2005-04-13 07:13:37 51°15.475 2°50.484 174.5 0.8 204 12.6
2005-04-13 07:13:42 51°15.474 2°50.483 173.9 0.8 204 12.7
2005-04-13 07:13:47 51°15.473 2°50.482 172.9 0.7 204 12.6
2005-04-13 07:13:52 51°15.472 2°50.481 172.2 0.7 208 12.6
2005-04-13 07:13:56 51°15.471 2°50.481 171.5 0.7 208 12.6
2005-04-13 07:14:02 51°15.47 2°50.48 170.7 0.7 208 12.6
2005-04-13 07:14:07 51°15.469 2°50.48 170.4 0.7 208 12.6
2005-04-13 07:14:12 51°15.468 2°50.479 169.6 0.6 206 12.6
2005-04-13 07:14:17 51°15.468 2°50.479 169 0.6 206 12.5
2005-04-13 07:14:22 51°15.467 2°50.478 168.6 0.6 205 12.7
2005-04-13 07:14:27 51°15.466 2°50.478 168.3 0.6 205 12.6
2005-04-13 07:14:31 51°15.465 2°50.477 168 0.6 211 12.7
2005-04-13 07:14:37 51°15.465 2°50.476 167.7 0.5 202 12.7
2005-04-13 07:14:41 51°15.464 2°50.476 167.6 0.5 205 12.7
2005-04-13 07:14:47 51°15.464 2°50.475 167.4 0.5 205 12.7
2005-04-13 07:14:52 51°15.463 2°50.475 167.3 0.5 212 12.6
2005-04-13 07:14:57 51°15.463 2°50.474 166.9 0.5 205 12.6
2005-04-13 07:15:01 51°15.462 2°50.473 166.9 0.4 206 12.6
2005-04-13 07:15:07 51°15.461 2°50.473 166.9 0.5 206 12.6
2005-04-13 07:15:12 51°15.46 2°50.473 167.4 0.5 205 12.6
2005-04-13 07:15:17 51°15.459 2°50.473 167.6 0.5 205 12.7
2005-04-13 07:15:22 51°15.458 2°50.473 167.7 0.4 211 12.6
2005-04-13 07:15:27 51°15.458 2°50.472 167.8 0.4 212 12.7
2005-04-13 07:15:31 51°15.457 2°50.472 167.7 0.5 210 12.7
2005-04-13 07:15:37 51°15.457 2°50.471 167.7 0.5 210 12.7
2005-04-13 07:15:40 51°15.456 2°50.471 167.8 0.4 220 12.7
2005-04-13 07:15:47 51°15.456 2°50.47 167.7 0.4 217 12.7
2005-04-13 07:15:51 51°15.456 2°50.469 167.8 0.4 224 12.7
2005-04-13 07:15:56 51°15.456 2°50.468 167.8 0.4 222 12.6
2005-04-13 07:16:03 51°15.455 2°50.467 167.8 0.4 222 12.7
2005-04-13 07:16:07 51°15.455 2°50.467 168 0.4 222 12.7
2005-04-13 07:16:12 51°15.454 2°50.466 168 0.4 229 12.6
2005-04-13 07:16:16 51°15.454 2°50.465 168.2 0.4 223 12.7
2005-04-13 07:16:22 51°15.454 2°50.464 168.3 0.4 233 12.6
2005-04-13 07:16:27 51°15.453 2°50.463 168.5 0.4 233 12.7
2005-04-13 07:16:31 51°15.453 2°50.463 168.6 0.4 237 12.6
2005-04-13 07:16:36 51°15.453 2°50.462 168.8 0.3 238 12.6
2005-04-13 07:16:41 51°15.453 2°50.461 168.9 0.3 245 12.6
2005-04-13 07:16:46 51°15.453 2°50.46 168.9 0.4 237 12.6
2005-04-13 07:16:52 51°15.453 2°50.46 169.1 0.4 246 12.5
2005-04-13 07:16:57 51°15.452 2°50.459 169 0.4 246 12.5
2005-04-13 07:17:02 51°15.452 2°50.458 168.9 0.4 244 12.6
2005-04-13 07:17:07 51°15.452 2°50.457 169.1 0.4 244 12.6
2005-04-13 07:17:12 51°15.452 2°50.457 169.2 0.4 244 12.6
2005-04-13 07:17:17 51°15.452 2°50.456 169.2 0.3 244 12.6
2005-04-13 07:17:22 51°15.452 2°50.455 169.3 0.4 253 12.7
2005-04-13 07:17:27 51°15.452 2°50.454 169.3 0.3 253 12.6
2005-04-13 07:17:31 51°15.452 2°50.454 169.4 0.3 253 12.6
2005-04-13 07:17:37 51°15.452 2°50.453 169.3 0.3 253 12.6
2005-04-13 07:17:42 51°15.452 2°50.452 169.3 0.4 255 12.6
2005-04-13 07:17:47 51°15.451 2°50.451 169.3 0.3 257 12.6
2005-04-13 07:17:52 51°15.451 2°50.451 169.1 0.4 258 12.6
2005-04-13 07:17:57 51°15.451 2°50.45 169.1 0.4 258 12.6
2005-04-13 07:18:00 51°15.451 2°50.449 169.2 0.3 253 12.6
2005-04-13 07:18:07 51°15.451 2°50.448 169 0.3 253 12.6
2005-04-13 07:18:11 51°15.451 2°50.448 169.1 0.4 268 12.6
2005-04-13 07:18:17 51°15.451 2°50.447 169.1 0.3 268 12.5
2005-04-13 07:18:21 51°15.451 2°50.446 169.1 0.4 264 12.5
2005-04-13 07:18:27 51°15.451 2°50.445 169.2 0.3 270 12.6
2005-04-13 07:18:31 51°15.451 2°50.444 169.2 0.3 270 12.6
2005-04-13 07:18:37 51°15.451 2°50.443 169.2 0.3 270 12.6
2005-04-13 07:18:43 51°15.451 2°50.442 169.2 0.4 263 12.6
2005-04-13 07:18:47 51°15.451 2°50.442 169 0.4 263 12.6
2005-04-13 07:18:52 51°15.451 2°50.441 168.8 0.4 263 12.6
2005-04-13 07:18:57 51°15.451 2°50.44 168.5 0.4 263 12.7
2005-04-13 07:19:01 51°15.451 2°50.44 168.4 0.4 271 12.7
2005-04-13 07:19:07 51°15.451 2°50.438 168.3 0.3 275 12.7
2005-04-13 07:19:11 51°15.451 2°50.438 168 0.4 282 12.7
2005-04-13 07:19:17 51°15.451 2°50.437 167.7 0.4 282 12.6
2005-04-13 07:19:22 51°15.451 2°50.436 167.6 0.4 270 12.5
2005-04-13 07:19:27 51°15.452 2°50.435 167.2 0.4 274 12.6
2005-04-13 07:19:32 51°15.451 2°50.435 166.8 0.4 278 12.5
2005-04-13 07:19:37 51°15.452 2°50.433 166.5 0.3 284 12.6
2005-04-13 07:19:41 51°15.452 2°50.433 166.3 0.4 282 12.6
2005-04-13 07:19:47 51°15.452 2°50.432 166.1 0.4 282 12.6
2005-04-13 07:19:51 51°15.452 2°50.431 166 0.4 276 12.6
2005-04-13 07:19:56 51°15.452 2°50.43 165.7 0.4 277 12.6
2005-04-13 07:20:02 51°15.452 2°50.429 165.4 0.4 277 12.7
2005-04-13 07:20:07 51°15.452 2°50.429 165.1 0.4 275 12.7
2005-04-13 07:20:12 51°15.452 2°50.428 164.7 0.4 275 12.6
2005-04-13 07:20:17 51°15.452 2°50.427 164.6 0.4 275 12.7
2005-04-13 07:20:22 51°15.452 2°50.426 164.4 0.4 282 12.7
2005-04-13 07:20:27 51°15.452 2°50.425 164.1 0.4 282 12.6
2005-04-13 07:20:31 51°15.452 2°50.424 164 0.4 284 12.6
2005-04-13 07:20:37 51°15.452 2°50.424 163.7 0.4 284 12.7
2005-04-13 07:20:42 51°15.452 2°50.423 163.3 0.4 289 12.6
2005-04-13 07:20:47 51°15.452 2°50.422 163.2 0.4 285 12.7
2005-04-13 07:20:52 51°15.452 2°50.421 162.8 0.4 280 12.7
2005-04-13 07:20:57 51°15.453 2°50.42 162.7 0.4 281 12.7
2005-04-13 07:21:02 51°15.453 2°50.419 162.5 0.4 281 12.6
2005-04-13 07:21:07 51°15.453 2°50.418 162.3 0.4 278 12.6
2005-04-13 07:21:12 51°15.453 2°50.417 162.2 0.4 284 12.7
2005-04-13 07:21:17 51°15.453 2°50.417 162.1 0.4 273 12.6
2005-04-13 07:21:22 51°15.453 2°50.416 162 0.4 278 12.6
2005-04-13 07:21:27 51°15.453 2°50.415 161.8 0.4 282 12.6
2005-04-13 07:21:32 51°15.453 2°50.414 161.7 0.4 282 12.6
2005-04-13 07:21:36 51°15.453 2°50.413 161.4 0.4 277 12.6
2005-04-13 07:21:42 51°15.454 2°50.412 161.1 0.4 276 12.6
2005-04-13 07:21:47 51°15.454 2°50.411 160.9 0.4 276 12.7
2005-04-13 07:21:51 51°15.454 2°50.411 160.6 0.4 272 12.7
2005-04-13 07:21:57 51°15.454 2°50.41 160.4 0.4 272 12.7
2005-04-13 07:22:02 51°15.454 2°50.409 160.2 0.4 283 12.7
2005-04-13 07:22:07 51°15.454 2°50.408 160.1 0.4 283 12.6
2005-04-13 07:22:12 51°15.454 2°50.408 159.9 0.4 282 12.6
2005-04-13 07:22:17 51°15.454 2°50.407 159.7 0.4 282 12.7
2005-04-13 07:22:22 51°15.454 2°50.406 159.4 0.4 282 12.6
2005-04-13 07:22:27 51°15.455 2°50.405 159.1 0.4 286 12.6
2005-04-13 07:22:32 51°15.455 2°50.404 158.8 0.4 286 12.6
2005-04-13 07:22:36 51°15.455 2°50.404 158.5 0.4 286 12.6
2005-04-13 07:22:42 51°15.455 2°50.403 158.4 0.4 282 12.6
2005-04-13 07:22:47 51°15.455 2°50.402 158.3 0.4 287 12.7
2005-04-13 07:22:51 51°15.455 2°50.401 158.2 0.4 277 12.6
2005-04-13 07:22:57 51°15.455 2°50.4 158.1 0.4 277 12.5
2005-04-13 07:23:02 51°15.455 2°50.399 157.8 0.4 277 12.6
2005-04-13 07:23:07 51°15.455 2°50.398 157.6 0.4 283 12.6
2005-04-13 07:23:11 51°15.455 2°50.398 157.6 0.4 283 12.7
2005-04-13 07:23:17 51°15.456 2°50.397 157.4 0.4 283 12.5
2005-04-13 07:23:22 51°15.456 2°50.396 157.4 0.4 283 12.6
2005-04-13 07:23:27 51°15.456 2°50.395 157.2 0.4 283 12.7
2005-04-13 07:23:32 51°15.456 2°50.394 157.2 0.4 283 12.6
2005-04-13 07:23:37 51°15.456 2°50.393 157.1 0.4 283 12.6
2005-04-13 07:23:41 51°15.456 2°50.392 156.9 0.4 275 12.6
2005-04-13 07:23:48 51°15.456 2°50.391 156.7 0.4 277 12.6
2005-04-13 07:23:52 51°15.456 2°50.39 156.7 0.5 280 12.6
2005-04-13 07:23:57 51°15.456 2°50.389 156.7 0.5 280 12.6
2005-04-13 07:24:02 51°15.456 2°50.388 156.6 0.5 278 12.5
2005-04-13 07:24:07 51°15.456 2°50.387 156.6 0.5 275 12.6
2005-04-13 07:24:11 51°15.456 2°50.386 156.6 0.5 275 12.6
2005-04-13 07:24:17 51°15.457 2°50.385 156.7 0.4 281 12.5
2005-04-13 07:24:21 51°15.457 2°50.384 156.7 0.5 277 12.5
2005-04-13 07:24:27 51°15.457 2°50.383 156.7 0.5 277 12.6
2005-04-13 07:24:31 51°15.457 2°50.382 156.7 0.4 285 12.6
2005-04-13 07:24:37 51°15.457 2°50.381 156.7 0.4 284 12.6
2005-04-13 07:24:42 51°15.457 2°50.38 156.8 0.4 284 12.5
2005-04-13 07:24:46 51°15.457 2°50.379 156.8 0.4 279 12.5
2005-04-13 07:24:52 51°15.457 2°50.378 156.8 0.4 279 12.6
2005-04-13 07:24:57 51°15.457 2°50.377 156.7 0.4 277 12.6
2005-04-13 07:25:03 51°15.457 2°50.376 156.7 0.4 274 12.5
2005-04-13 07:25:07 51°15.457 2°50.375 156.7 0.4 274 12.5
2005-04-13 07:25:12 51°15.458 2°50.374 156.8 0.4 276 12.5
2005-04-13 07:25:15 51°15.458 2°50.373 156.8 0.4 281 12.5
2005-04-13 07:25:22 51°15.458 2°50.372 156.8 0.5 283 12.5
2005-04-13 07:25:27 51°15.458 2°50.371 156.8 0.4 282 12.5
2005-04-13 07:25:32 51°15.458 2°50.37 156.8 0.4 282 12.6
2005-04-13 07:25:36 51°15.458 2°50.369 156.8 0.4 283 12.5
2005-04-13 07:25:42 51°15.458 2°50.368 156.8 0.5 274 12.5
2005-04-13 07:25:47 51°15.458 2°50.367 156.6 0.5 284 12.5
2005-04-13 07:25:51 51°15.458 2°50.366 156.7 0.5 278 12.5
2005-04-13 07:25:57 51°15.458 2°50.365 156.7 0.5 278 12.5
2005-04-13 07:26:01 51°15.458 2°50.364 156.7 0.5 278 12.5
2005-04-13 07:26:07 51°15.458 2°50.363 156.7 0.4 283 12.5
2005-04-13 07:26:12 51°15.459 2°50.362 156.7 0.5 272 12.5
2005-04-13 07:26:16 51°15.458 2°50.361 156.7 0.4 276 12.5
2005-04-13 07:26:22 51°15.458 2°50.36 156.6 0.5 281 12.6
2005-04-13 07:26:27 51°15.458 2°50.359 156.7 0.5 281 12.6
2005-04-13 07:26:31 51°15.459 2°50.358 156.8 0.4 276 12.6
2005-04-13 07:26:36 51°15.459 2°50.357 156.9 0.4 279 12.6
2005-04-13 07:26:41 51°15.459 2°50.356 156.9 0.5 275 12.6
2005-04-13 07:26:47 51°15.459 2°50.355 156.9 0.5 278 12.5
2005-04-13 07:26:52 51°15.459 2°50.354 156.9 0.5 275 12.6
2005-04-13 07:26:57 51°15.459 2°50.353 157 0.4 276 12.6
2005-04-13 07:27:01 51°15.459 2°50.352 157.1 0.5 276 12.6
2005-04-13 07:27:07 51°15.459 2°50.351 157 0.5 275 12.6
2005-04-13 07:27:11 51°15.459 2°50.35 157 0.5 277 12.6
2005-04-13 07:27:17 51°15.459 2°50.348 157.2 0.4 278 12.6
2005-04-13 07:27:22 51°15.459 2°50.347 157.1 0.5 275 12.7
2005-04-13 07:27:27 51°15.459 2°50.346 157 0.5 274 12.6
2005-04-13 07:27:32 51°15.459 2°50.345 157 0.5 278 12.6
2005-04-13 07:27:37 51°15.459 2°50.344 157 0.5 278 12.7
2005-04-13 07:27:42 51°15.459 2°50.343 156.9 0.5 274 12.6
2005-04-13 07:27:47 51°15.459 2°50.342 156.8 0.5 277 12.6
2005-04-13 07:27:52 51°15.459 2°50.341 156.7 0.5 273 12.6
2005-04-13 07:27:56 51°15.459 2°50.34 156.7 0.4 271 12.6
2005-04-13 07:28:02 51°15.459 2°50.339 156.7 0.4 270 12.6
2005-04-13 07:28:07 51°15.459 2°50.338 156.5 0.4 270 12.6
2005-04-13 07:28:11 51°15.459 2°50.337 156.6 0.5 278 12.6
2005-04-13 07:28:17 51°15.459 2°50.336 156.6 0.5 278 12.6
2005-04-13 07:28:21 51°15.459 2°50.335 156.4 0.5 276 12.6
2005-04-13 07:28:27 51°15.459 2°50.334 156.4 0.5 277 12.6
2005-04-13 07:28:32 51°15.459 2°50.333 156.4 0.5 273 12.6
2005-04-13 07:28:37 51°15.459 2°50.332 156.2 0.5 276 12.6
2005-04-13 07:28:43 51°15.459 2°50.331 156.3 0.5 276 12.6
2005-04-13 07:28:47 51°15.459 2°50.33 156.3 0.5 277 12.6
2005-04-13 07:28:52 51°15.459 2°50.328 156.2 0.5 276 12.6
2005-04-13 07:28:57 51°15.459 2°50.328 156.1 0.5 276 12.5
2005-04-13 07:29:02 51°15.459 2°50.326 156.2 0.5 276 12.5
2005-04-13 07:29:07 51°15.46 2°50.325 156 0.5 278 12.5
2005-04-13 07:29:11 51°15.459 2°50.324 156.1 0.5 271 12.6
2005-04-13 07:29:17 51°15.46 2°50.323 156.1 0.5 278 12.5
2005-04-13 07:29:22 51°15.459 2°50.322 156 0.5 281 12.5
2005-04-13 07:29:27 51°15.46 2°50.321 156 0.5 282 12.5
2005-04-13 07:29:31 51°15.46 2°50.32 156 0.5 273 12.6
2005-04-13 07:29:36 51°15.46 2°50.319 156 0.5 276 12.6
2005-04-13 07:29:42 51°15.46 2°50.318 155.9 0.5 276 12.5
2005-04-13 07:29:47 51°15.46 2°50.317 155.9 0.5 272 12.5
2005-04-13 07:29:51 51°15.46 2°50.316 155.8 0.5 274 12.5
2005-04-13 07:29:57 51°15.46 2°50.315 155.9 0.5 274 12.5
2005-04-13 07:30:03 51°15.46 2°50.313 155.9 0.5 274 12.5
2005-04-13 07:30:07 51°15.46 2°50.312 155.9 0.5 277 12.5
2005-04-13 07:30:12 51°15.46 2°50.311 155.8 0.5 275 12.5
2005-04-13 07:30:17 51°15.46 2°50.31 155.7 0.5 275 12.5
2005-04-13 07:30:22 51°15.46 2°50.309 155.7 0.5 277 12.5
2005-04-13 07:30:27 51°15.46 2°50.308 155.5 0.5 277 12.5
2005-04-13 07:30:32 51°15.46 2°50.307 155.3 0.5 277 12.5
2005-04-13 07:30:37 51°15.46 2°50.306 155.3 0.5 280 12.5
2005-04-13 07:30:42 51°15.46 2°50.305 155.1 0.5 270 12.5
2005-04-13 07:30:47 51°15.46 2°50.304 154.9 0.5 270 12.5
2005-04-13 07:30:52 51°15.461 2°50.302 154.7 0.5 270 12.5
2005-04-13 07:30:57 51°15.461 2°50.301 154.6 0.5 280 12.6
2005-04-13 07:31:01 51°15.461 2°50.301 154.5 0.5 275 12.5
2005-04-13 07:31:07 51°15.461 2°50.299 154.4 0.5 276 12.5
2005-04-13 07:31:11 51°15.461 2°50.298 154.2 0.5 279 12.5
2005-04-13 07:31:17 51°15.461 2°50.297 154.1 0.5 274 12.5
2005-04-13 07:31:21 51°15.462 2°50.296 153.9 0.5 276 12.6
2005-04-13 07:31:27 51°15.462 2°50.294 153.8 0.5 275 12.5
2005-04-13 07:31:31 51°15.462 2°50.293 153.6 0.5 275 12.5
2005-04-13 07:31:37 51°15.462 2°50.292 153.4 0.5 280 12.5
2005-04-13 07:31:42 51°15.462 2°50.291 153.3 0.5 280 12.4
2005-04-13 07:31:47 51°15.462 2°50.29 153.2 0.5 276 12.5
2005-04-13 07:31:52 51°15.462 2°50.289 153.1 0.5 276 12.5
2005-04-13 07:31:57 51°15.462 2°50.288 152.9 0.5 277 12.5
2005-04-13 07:32:01 51°15.462 2°50.287 152.7 0.5 278 12.4
2005-04-13 07:32:06 51°15.463 2°50.286 152.4 0.5 275 12.4
2005-04-13 07:32:12 51°15.463 2°50.284 152.2 0.5 277 12.4
2005-04-13 07:32:17 51°15.463 2°50.283 152.1 0.5 274 12.5
2005-04-13 07:32:22 51°15.463 2°50.282 151.9 0.5 277 12.5
2005-04-13 07:32:27 51°15.463 2°50.281 151.8 0.5 277 12.5
2005-04-13 07:32:32 51°15.463 2°50.28 151.7 0.5 277 12.5
2005-04-13 07:32:37 51°15.463 2°50.279 151.6 0.5 279 12.6
2005-04-13 07:32:41 51°15.463 2°50.278 151.6 0.5 272 12.6
2005-04-13 07:32:47 51°15.463 2°50.276 151.6 0.5 272 12.6
2005-04-13 07:32:52 51°15.463 2°50.275 151.5 0.5 274 12.4
2005-04-13 07:32:57 51°15.463 2°50.274 151.4 0.5 273 12.5
2005-04-13 07:33:02 51°15.463 2°50.273 151.4 0.5 272 12.6
2005-04-13 07:33:07 51°15.463 2°50.272 151.4 0.5 269 12.5
2005-04-13 07:33:12 51°15.463 2°50.27 151.5 0.5 271 12.5
2005-04-13 07:33:17 51°15.463 2°50.27 151.5 0.6 269 12.5
2005-04-13 07:33:21 51°15.463 2°50.268 151.6 0.5 273 12.6
2005-04-13 07:33:27 51°15.463 2°50.267 151.6 0.5 270 12.6
2005-04-13 07:33:32 51°15.463 2°50.266 151.8 0.5 268 12.5
2005-04-13 07:33:37 51°15.463 2°50.265 152 0.5 269 12.6
2005-04-13 07:33:42 51°15.463 2°50.264 152.1 0.5 271 12.5
2005-04-13 07:33:47 51°15.463 2°50.263 152.3 0.5 272 12.4
2005-04-13 07:33:51 51°15.463 2°50.262 152.3 0.5 269 12.5
2005-04-13 07:33:57 51°15.463 2°50.26 152.4 0.5 266 12.6
2005-04-13 07:34:02 51°15.463 2°50.259 152.5 0.5 270 12.5
2005-04-13 07:34:07 51°15.463 2°50.258 152.5 0.5 270 12.4
2005-04-13 07:34:12 51°15.463 2°50.257 152.6 0.5 272 12.4
2005-04-13 07:34:16 51°15.463 2°50.256 152.7 0.5 271 12.4
2005-04-13 07:34:22 51°15.463 2°50.255 152.7 0.5 269 12.4
2005-04-13 07:34:27 51°15.463 2°50.254 152.7 0.5 266 12.4
2005-04-13 07:34:31 51°15.463 2°50.253 152.8 0.5 269 12.5
2005-04-13 07:34:35 51°15.463 2°50.252 152.8 0.5 263 12.5
2005-04-13 07:34:42 51°15.463 2°50.251 152.9 0.5 267 12.4
2005-04-13 07:34:47 51°15.463 2°50.249 152.9 0.5 260 12.4
2005-04-13 07:34:52 51°15.463 2°50.249 153 0.5 266 12.4
2005-04-13 07:34:57 51°15.463 2°50.247 153.1 0.5 261 12.4
2005-04-13 07:35:01 51°15.463 2°50.247 153.1 0.5 263 12.4
2005-04-13 07:35:07 51°15.463 2°50.245 153.3 0.5 263 12.3
2005-04-13 07:35:12 51°15.462 2°50.244 153.2 0.5 259 12.4
2005-04-13 07:35:17 51°15.462 2°50.243 153.3 0.5 261 12.4
2005-04-13 07:35:22 51°15.462 2°50.242 153.5 0.5 263 12.4
2005-04-13 07:35:27 51°15.462 2°50.241 153.6 0.5 263 12.4
2005-04-13 07:35:32 51°15.462 2°50.24 153.6 0.5 261 12.5
2005-04-13 07:35:37 51°15.462 2°50.239 153.5 0.5 262 12.4
2005-04-13 07:35:42 51°15.462 2°50.237 153.5 0.5 259 12.5
2005-04-13 07:35:47 51°15.462 2°50.236 153.5 0.5 259 12.4
2005-04-13 07:35:51 51°15.462 2°50.235 153.5 0.5 259 12.4
2005-04-13 07:35:56 51°15.461 2°50.235 153.5 0.5 261 12.4
2005-04-13 07:36:00 51°15.461 2°50.234 153.5 0.5 254 12.4
2005-04-13 07:36:07 51°15.461 2°50.232 153.5 0.5 257 12.4
2005-04-13 07:36:11 51°15.461 2°50.232 153.6 0.5 258 12.5
2005-04-13 07:36:16 51°15.461 2°50.231 153.5 0.5 258 12.5
2005-04-13 07:36:22 51°15.46 2°50.23 153.5 0.5 260 12.5
2005-04-13 07:36:27 51°15.46 2°50.229 153.6 0.5 256 12.5
2005-04-13 07:36:32 51°15.46 2°50.228 153.7 0.5 255 12.5
2005-04-13 07:36:37 51°15.459 2°50.226 153.7 0.5 257 12.5
2005-04-13 07:36:42 51°15.459 2°50.225 153.8 0.6 254 12.5
2005-04-13 07:36:47 51°15.459 2°50.224 154 0.6 254 12.3
2005-04-13 07:36:51 51°15.459 2°50.223 154.1 0.5 248 12.4
2005-04-13 07:36:57 51°15.458 2°50.222 154.3 0.4 252 12.4
2005-04-13 07:37:02 51°15.458 2°50.221 154.6 0.4 252 12.4
2005-04-13 07:37:07 51°15.458 2°50.22 154.7 0.5 249 12.5
2005-04-13 07:37:12 51°15.458 2°50.219 155 0.5 249 12.5
2005-04-13 07:37:17 51°15.457 2°50.217 155.3 0.5 249 12.4
2005-04-13 07:37:21 51°15.457 2°50.217 155.4 0.5 250 12.5
2005-04-13 07:37:27 51°15.457 2°50.215 155.7 0.5 247 12.5
2005-04-13 07:37:32 51°15.457 2°50.214 155.8 0.6 251 12.5
2005-04-13 07:37:37 51°15.456 2°50.213 156 0.6 249 12.5
2005-04-13 07:37:41 51°15.456 2°50.212 156 0.5 254 12.5
2005-04-13 07:37:46 51°15.456 2°50.211 156.2 0.5 236 12.5
2005-04-13 07:37:51 51°15.455 2°50.211 156.4 0.5 236 12.5
2005-04-13 07:37:57 51°15.453 2°50.21 156.4 0.5 236 12.5
2005-04-13 07:38:01 51°15.451 2°50.211 156.7 1.5 175 12.4
2005-04-13 07:38:07 51°15.448 2°50.211 157.3 1.8 173 12.3
2005-04-13 07:38:12 51°15.445 2°50.212 157.9 2 171 12.4
2005-04-13 07:38:17 51°15.442 2°50.212 158.9 2.2 172 12.4
2005-04-13 07:38:22 51°15.438 2°50.213 159.9 2.4 172 12.4
2005-04-13 07:38:27 51°15.434 2°50.214 161.1 2.6 174 12.3
2005-04-13 07:38:32 51°15.43 2°50.214 162.1 2.7 173 12.4
2005-04-13 07:38:37 51°15.426 2°50.215 163.1 3 174 12.4
2005-04-13 07:38:42 51°15.421 2°50.215 163.7 3 174 12.4
2005-04-13 07:38:47 51°15.417 2°50.216 164.7 3.3 175 12.4
2005-04-13 07:38:52 51°15.412 2°50.216 165.7 3.4 175 12.4
2005-04-13 07:38:56 51°15.408 2°50.216 167.1 3.4 175 12.4
2005-04-13 07:39:02 51°15.401 2°50.216 168.7 3.6 178 12.3
2005-04-13 07:39:07 51°15.396 2°50.215 171 3.8 183 12.3
2005-04-13 07:39:12 51°15.39 2°50.214 173.2 3.9 184 12.3
2005-04-13 07:39:17 51°15.385 2°50.213 176.9 3.9 184 12.3
2005-04-13 07:39:21 51°15.381 2°50.212 180 4.1 191 12.4
2005-04-13 07:39:27 51°15.374 2°50.209 183.5 4.2 195 12.2
2005-04-13 07:39:31 51°15.369 2°50.206 186.6 4.3 198 12.3
2005-04-13 07:39:36 51°15.363 2°50.203 189.7 4.3 198 12.3
2005-04-13 07:39:41 51°15.358 2°50.199 193 4.3 198 12.4
2005-04-13 07:39:47 51°15.351 2°50.194 196.3 4.5 205 12.3
2005-04-13 07:39:52 51°15.345 2°50.189 198.8 4.7 208 12.3
2005-04-13 07:39:57 51°15.34 2°50.184 201.2 4.7 208 12.4
2005-04-13 07:40:02 51°15.334 2°50.178 203.6 4.7 211 12.2
2005-04-13 07:40:07 51°15.329 2°50.172 205.9 4.6 214 12.3
2005-04-13 07:40:12 51°15.323 2°50.166 208.4 4.6 214 12.2
2005-04-13 07:40:17 51°15.319 2°50.16 211 4.7 218 12.3
2005-04-13 07:40:22 51°15.314 2°50.153 213.6 4.7 219 12.3
2005-04-13 07:40:27 51°15.309 2°50.145 215.4 4.7 219 12.3
2005-04-13 07:40:31 51°15.305 2°50.139 217.7 4.7 223 12.3
2005-04-13 07:40:36 51°15.3 2°50.132 219.1 4.7 223 12.3
2005-04-13 07:40:42 51°15.295 2°50.123 220.7 4.7 228 12.3
2005-04-13 07:40:47 51°15.291 2°50.116 222 4.8 227 12.2
2005-04-13 07:40:52 51°15.287 2°50.108 223.2 4.7 228 12.2
2005-04-13 07:40:57 51°15.282 2°50.098 224.2 4.7 228 12.3
2005-04-13 07:41:01 51°15.279 2°50.093 225.7 4.8 230 12.3
2005-04-13 07:41:07 51°15.274 2°50.082 226.4 4.7 231 12.4
2005-04-13 07:41:12 51°15.27 2°50.073 227.6 4.8 232 12.3
2005-04-13 07:41:17 51°15.266 2°50.066 228.4 4.8 233 12.3
2005-04-13 07:41:22 51°15.262 2°50.056 229.4 4.8 233 12.3
2005-04-13 07:41:27 51°15.258 2°50.047 230.4 4.8 235 12.3
2005-04-13 07:41:32 51°15.254 2°50.039 231 4.8 236 12.4
2005-04-13 07:41:36 51°15.251 2°50.031 232.4 4.8 236 12.4
2005-04-13 07:41:41 51°15.247 2°50.023 233.3 4.8 237 12.3
2005-04-13 07:41:47 51°15.243 2°50.013 234.4 4.7 239 12.4
2005-04-13 07:41:52 51°15.24 2°50.003 235.1 4.6 238 12.4
2005-04-13 07:41:57 51°15.237 2°49.995 236.6 4.6 240 12.2
2005-04-13 07:42:02 51°15.234 2°49.986 237.9 4.5 241 12.2
2005-04-13 07:42:07 51°15.231 2°49.977 239.1 4.5 241 12.2
2005-04-13 07:42:12 51°15.229 2°49.969 240.9 4.5 241 12.3
2005-04-13 07:42:17 51°15.227 2°49.961 242.8 4.3 246 12.2
2005-04-13 07:42:22 51°15.225 2°49.952 244.5 4.3 246 12.3
2005-04-13 07:42:27 51°15.223 2°49.944 246.2 4.2 251 12.3
2005-04-13 07:42:32 51°15.221 2°49.934 248 4.1 250 12.3
2005-04-13 07:42:36 51°15.22 2°49.927 250.2 4.1 250 12.2
2005-04-13 07:42:41 51°15.218 2°49.918 251.6 4 255 12.3
2005-04-13 07:42:47 51°15.217 2°49.908 253.4 4 255 12.3
2005-04-13 07:42:52 51°15.216 2°49.901 255.1 3.9 256 12.4
2005-04-13 07:42:57 51°15.214 2°49.892 257.1 3.9 259 12.3
2005-04-13 07:43:02 51°15.214 2°49.883 258.5 3.9 258 12.3
2005-04-13 07:43:07 51°15.213 2°49.874 259.8 3.9 258 12.3
2005-04-13 07:43:12 51°15.212 2°49.867 261.2 3.9 263 12.3
2005-04-13 07:43:17 51°15.212 2°49.858 262.7 3.9 263 12.3
2005-04-13 07:43:21 51°15.211 2°49.852 264.4 3.8 266 12.3
2005-04-13 07:43:27 51°15.211 2°49.841 265.6 3.7 266 12.3
2005-04-13 07:43:31 51°15.211 2°49.835 266.8 3.7 267 12.3
2005-04-13 07:43:37 51°15.21 2°49.826 268.3 3.7 267 12.3
2005-04-13 07:43:42 51°15.21 2°49.817 269.2 3.7 269 12.3
2005-04-13 07:43:47 51°15.21 2°49.809 270.4 3.7 269 12.3
2005-04-13 07:43:51 51°15.21 2°49.802 271.9 3.7 271 12.3
2005-04-13 07:43:57 51°15.21 2°49.793 273.3 3.7 271 12.2
2005-04-13 07:44:01 51°15.211 2°49.787 274.6 3.6 274 12.4
2005-04-13 07:44:07 51°15.211 2°49.777 276.2 3.6 273 12.3
2005-04-13 07:44:12 51°15.212 2°49.769 277.9 3.6 276 12.3
2005-04-13 07:44:17 51°15.213 2°49.761 279.4 3.6 276 12.3
2005-04-13 07:44:22 51°15.213 2°49.753 280.8 3.6 278 12.3
2005-04-13 07:44:27 51°15.214 2°49.746 282.5 3.6 280 12.3
2005-04-13 07:44:31 51°15.215 2°49.74 284.3 3.5 281 12.2
2005-04-13 07:44:37 51°15.216 2°49.731 286.7 3.5 282 12.3
2005-04-13 07:44:42 51°15.218 2°49.723 288.7 3.5 282 12.2
2005-04-13 07:44:47 51°15.219 2°49.716 291.1 3.5 286 12.3
2005-04-13 07:44:52 51°15.221 2°49.708 293.7 3.5 286 12.3
2005-04-13 07:44:56 51°15.222 2°49.703 296.3 3.5 286 12.2
2005-04-13 07:45:02 51°15.225 2°49.694 299 3.5 286 12.2
2005-04-13 07:45:07 51°15.226 2°49.688 301.7 3.4 295 12.2
2005-04-13 07:45:11 51°15.228 2°49.682 304.9 3.4 297 12.3
2005-04-13 07:45:17 51°15.231 2°49.675 307.7 3.3 298 12.2
2005-04-13 07:45:23 51°15.234 2°49.668 310.6 3.3 300 12.2
2005-04-13 07:45:27 51°15.236 2°49.662 312.5 3.3 303 12.2
2005-04-13 07:45:31 51°15.238 2°49.658 315 3.2 304 12.2
2005-04-13 07:45:37 51°15.241 2°49.651 318 3.3 306 12.2
2005-04-13 07:45:41 51°15.243 2°49.647 320.3 3.2 308 12.3
2005-04-13 07:45:47 51°15.247 2°49.64 322.7 3.2 310 12.4
2005-04-13 07:45:52 51°15.25 2°49.635 325.2 3.2 310 12.3
2005-04-13 07:45:56 51°15.253 2°49.631 327.2 3.2 316 12.2
2005-04-13 07:46:01 51°15.256 2°49.627 330.3 3.1 316 12.3
2005-04-13 07:46:07 51°15.26 2°49.622 332.4 3.1 316 12.2
2005-04-13 07:46:11 51°15.263 2°49.618 334.2 3.1 318 12.2
2005-04-13 07:46:16 51°15.266 2°49.614 336.2 3 320 12.3
2005-04-13 07:46:22 51°15.27 2°49.609 338.2 3 323 12.3
2005-04-13 07:46:27 51°15.274 2°49.605 340.2 3 324 12.3
2005-04-13 07:46:32 51°15.277 2°49.602 342.5 3 326 12.4
2005-04-13 07:46:37 51°15.28 2°49.599 344.6 3 327 12.3
2005-04-13 07:46:41 51°15.283 2°49.596 347.1 3 330 12.3
2005-04-13 07:46:47 51°15.287 2°49.593 349.2 3 330 12.3
2005-04-13 07:46:52 51°15.291 2°49.59 351.1 3 330 12.4
2005-04-13 07:46:57 51°15.294 2°49.587 353.7 2.9 335 12.4
2005-04-13 07:47:02 51°15.298 2°49.585 355.6 2.9 338 12.3
2005-04-13 07:47:07 51°15.302 2°49.583 357.8 2.8 340 12.3
2005-04-13 07:47:12 51°15.306 2°49.581 0.3 2.7 343 12.3
2005-04-13 07:47:17 51°15.309 2°49.58 3 2.7 342 12.3
2005-04-13 07:47:20 51°15.311 2°49.579 5 2.6 346 12.4
2005-04-13 07:47:27 51°15.316 2°49.577 7.5 2.6 347 12.4
2005-04-13 07:47:32 51°15.319 2°49.576 10.1 2.6 347 12.4
2005-04-13 07:47:36 51°15.322 2°49.575 12.8 2.5 351 12.3
2005-04-13 07:47:42 51°15.326 2°49.575 15.3 2.5 353 12.4
2005-04-13 07:47:47 51°15.329 2°49.575 18.2 2.4 356 12.3
2005-04-13 07:47:52 51°15.333 2°49.575 20.4 2.4 356 12.3
2005-04-13 07:47:57 51°15.336 2°49.575 22.9 2.4 356 12.3
2005-04-13 07:48:01 51°15.339 2°49.575 25.8 2.3 4 12.3
2005-04-13 07:48:07 51°15.343 2°49.576 28.3 2.3 7 12.4
2005-04-13 07:48:12 51°15.346 2°49.577 30.4 2.3 7 12.3
2005-04-13 07:48:17 51°15.349 2°49.578 33.1 2.3 11 12.3
2005-04-13 07:48:22 51°15.352 2°49.58 35.9 2.2 15 12.2
2005-04-13 07:48:27 51°15.354 2°49.581 39 2.2 17 12.3
2005-04-13 07:48:31 51°15.357 2°49.583 41.6 2.1 23 12.3
2005-04-13 07:48:36 51°15.359 2°49.585 44.5 2.1 24 12.2
2005-04-13 07:48:41 51°15.362 2°49.587 47.1 2.1 28 12.3
2005-04-13 07:48:47 51°15.365 2°49.59 50 2.1 28 12.4
2005-04-13 07:48:51 51°15.366 2°49.592 52.6 2.1 34 12.4
2005-04-13 07:48:57 51°15.369 2°49.596 55.2 2 37 12.4
2005-04-13 07:49:02 51°15.371 2°49.599 57.8 2 43 12.3
2005-04-13 07:49:07 51°15.373 2°49.602 60.5 1.9 45 12.4
2005-04-13 07:49:12 51°15.375 2°49.605 63.2 1.8 52 12.3
2005-04-13 07:49:16 51°15.376 2°49.608 66.1 1.9 52 12.4
2005-04-13 07:49:22 51°15.377 2°49.611 68.7 1.9 53 12.3
2005-04-13 07:49:27 51°15.378 2°49.615 71.4 1.9 61 12.3
2005-04-13 07:49:32 51°15.379 2°49.619 74 1.8 64 12.4
2005-04-13 07:49:37 51°15.38 2°49.623 76.5 1.8 66 12.3
2005-04-13 07:49:41 51°15.381 2°49.626 79.1 1.8 72 12.4
2005-04-13 07:49:47 51°15.382 2°49.631 81.4 1.8 72 12.4
2005-04-13 07:49:52 51°15.382 2°49.634 84.1 1.9 79 12.3
2005-04-13 07:49:57 51°15.382 2°49.638 86.7 1.9 82 12.3
2005-04-13 07:50:01 51°15.383 2°49.642 90 1.9 84 12.4
2005-04-13 07:50:07 51°15.383 2°49.647 92.5 1.8 90 12.3
2005-04-13 07:50:11 51°15.383 2°49.65 94.2 1.6 89 12.3
2005-04-13 07:50:17 51°15.382 2°49.654 96.2 1.6 90 12.4
2005-04-13 07:50:22 51°15.382 2°49.657 97.9 1.6 95 12.4
2005-04-13 07:50:27 51°15.382 2°49.66 99.4 1.5 97 12.3
2005-04-13 07:50:31 51°15.382 2°49.662 100.8 1.4 99 12.3
2005-04-13 07:50:36 51°15.381 2°49.665 102.3 1.3 102 12.3
2005-04-13 07:50:42 51°15.381 2°49.669 103.2 1.3 106 12.4
2005-04-13 07:50:47 51°15.38 2°49.671 104.5 1.2 110 12.3
2005-04-13 07:50:51 51°15.379 2°49.673 105.8 1.2 109 12.3
2005-04-13 07:50:57 51°15.379 2°49.676 107.2 1.2 114 12.3
2005-04-13 07:51:02 51°15.378 2°49.677 108.1 1.2 114 12.3
2005-04-13 07:51:06 51°15.378 2°49.679 109.5 1 116 12.4
2005-04-13 07:51:11 51°15.377 2°49.681 110.9 1 119 12.3
2005-04-13 07:51:17 51°15.376 2°49.683 112 1 119 12.4
2005-04-13 07:51:22 51°15.375 2°49.685 113.1 1 127 12.4
2005-04-13 07:51:27 51°15.374 2°49.687 114.3 0.9 130 12.4
2005-04-13 07:51:31 51°15.373 2°49.688 115.3 0.9 131 12.3
2005-04-13 07:51:37 51°15.372 2°49.689 116.5 0.9 131 12.3
2005-04-13 07:51:42 51°15.371 2°49.691 117.5 0.9 135 12.3
2005-04-13 07:51:47 51°15.37 2°49.692 118.3 0.9 135 12.3
2005-04-13 07:51:52 51°15.369 2°49.693 119.1 0.9 135 12.3
2005-04-13 07:51:56 51°15.369 2°49.694 119.9 0.8 145 12.3
2005-04-13 07:52:01 51°15.368 2°49.695 120.6 0.8 142 12.3
2005-04-13 07:52:07 51°15.367 2°49.696 121.4 0.7 149 12.3
2005-04-13 07:52:12 51°15.366 2°49.697 122.1 0.7 144 12.3
2005-04-13 07:52:16 51°15.365 2°49.697 122.6 0.7 150 12.3
2005-04-13 07:52:22 51°15.364 2°49.698 123.2 0.7 149 12.3
2005-04-13 07:52:27 51°15.363 2°49.699 123.7 0.7 157 12.3
2005-04-13 07:52:32 51°15.362 2°49.7 124.1 0.7 157 12.3
2005-04-13 07:52:37 51°15.362 2°49.7 124.6 0.7 161 12.2
2005-04-13 07:52:42 51°15.361 2°49.7 125 0.6 154 12.3
2005-04-13 07:52:47 51°15.36 2°49.701 125.5 0.6 154 12.3
2005-04-13 07:52:52 51°15.359 2°49.701 125.6 0.6 154 12.3
2005-04-13 07:52:57 51°15.359 2°49.702 126 0.6 165 12.3
2005-04-13 07:53:02 51°15.358 2°49.702 126.2 0.6 162 12.3
2005-04-13 07:53:07 51°15.357 2°49.702 126.5 0.6 162 12.3
2005-04-13 07:53:12 51°15.356 2°49.703 126.8 0.6 170 12.3
2005-04-13 07:53:17 51°15.356 2°49.703 127.1 0.6 171 12.3
2005-04-13 07:53:21 51°15.355 2°49.703 127.6 0.5 170 12.3
2005-04-13 07:53:27 51°15.354 2°49.703 127.8 0.5 170 12.3
2005-04-13 07:53:32 51°15.353 2°49.703 128.3 0.5 176 12.3
2005-04-13 07:53:37 51°15.353 2°49.704 128.8 0.5 181 12.3
2005-04-13 07:53:42 51°15.352 2°49.703 129.1 0.5 177 12.3
2005-04-13 07:53:47 51°15.351 2°49.703 129.7 0.5 177 12.3
2005-04-13 07:53:52 51°15.351 2°49.703 130.1 0.5 177 12.2
2005-04-13 07:53:57 51°15.35 2°49.703 130.5 0.5 190 12.3
2005-04-13 07:54:01 51°15.349 2°49.703 131 0.5 189 12.3
2005-04-13 07:54:07 51°15.349 2°49.703 131.3 0.5 193 12.3
2005-04-13 07:54:12 51°15.348 2°49.703 131.6 0.5 190 12.3
2005-04-13 07:54:17 51°15.347 2°49.702 132 0.5 190 12.3